Time;durP1;ratioP1;P1;durP2;ratioP2;P2;SDS_P1;SDS_P2;PMS_P1;PMS_P2;Temp;Humidity;BMP_temperature;BMP_pressure;BME280_temperature;BME280_humidity;BME280_pressure;Samples;Min_cycle;Max_cycle;Signal;HPM_P1;HPM_P2
2022/05/27 00:01:08;;;;;;;8.93;5.53;;;;;;;21.54;nan;-24415.66;5072356;28;20182;-56
2022/05/27 00:03:34;;;;;;;9.85;5.65;;;;;;;21.69;nan;-24419.78;5072173;28;20553;-56
2022/05/27 00:06:00;;;;;;;8.07;5.53;;;;;;;21.43;nan;-24412.72;5074994;28;20185;-57
2022/05/27 00:08:25;;;;;;;9.20;5.82;;;;;;;21.36;nan;-24410.66;5069498;28;20654;-55
2022/05/27 00:10:51;;;;;;;11.68;5.97;;;;;;;21.70;nan;-24420.06;5073950;28;20189;-57
2022/05/27 00:13:17;;;;;;;9.98;5.78;;;;;;;21.52;nan;-24415.09;5074145;28;20176;-56
2022/05/27 00:15:42;;;;;;;12.75;6.10;;;;;;;21.70;nan;-24420.06;5071496;28;20596;-56
2022/05/27 00:18:08;;;;;;;10.77;6.07;;;;;;;21.46;nan;-24413.56;5077221;28;20205;-56
2022/05/27 00:20:34;;;;;;;9.77;6.03;;;;;;;21.55;nan;-24416.06;5071573;28;20194;-56
2022/05/27 00:23:00;;;;;;;12.35;5.97;;;;;;;21.74;nan;-24421.19;5073448;28;20674;-56
2022/05/27 00:25:26;;;;;;;11.40;6.13;;;;;;;21.72;nan;-24420.63;5067451;28;20181;-55
2022/05/27 00:27:51;;;;;;;13.52;5.97;;;;;;;21.67;nan;-24419.09;5076260;28;20185;-57
2022/05/27 00:30:17;;;;;;;13.68;6.07;;;;;;;21.57;nan;-24416.47;5071785;28;20181;-56
2022/05/27 00:32:42;;;;;;;9.75;5.60;;;;;;;21.53;nan;-24415.38;5073846;28;20174;-56
2022/05/27 00:35:08;;;;;;;10.00;5.32;;;;;;;21.59;nan;-24417.16;5075659;28;20204;-57
2022/05/27 00:37:34;;;;;;;9.65;5.82;;;;;;;21.55;nan;-24416.06;5076911;28;20186;-56
2022/05/27 00:39:59;;;;;;;8.80;5.60;;;;;;;21.60;nan;-24417.31;5075610;28;20205;-57
2022/05/27 00:42:25;;;;;;;9.45;5.72;;;;;;;21.47;nan;-24413.84;5076184;28;20174;-57
2022/05/27 00:44:50;;;;;;;8.57;5.45;;;;;;;21.21;nan;-24406.50;5075134;28;20182;-57
2022/05/27 00:47:19;;;;;;;9.02;5.10;;;;;;;21.43;nan;-24412.59;5072902;28;20181;-57
2022/05/27 00:50:01;;;;;;;10.18;5.60;;;;;;;21.32;nan;-24409.53;5078156;28;20563;-57
2022/05/27 00:52:30;;;;;;;8.35;5.15;;;;;;;21.28;nan;-24408.44;5063899;28;20693;-56
2022/05/27 00:54:55;;;;;;;13.38;5.25;;;;;;;21.11;nan;-24403.84;5074659;28;20707;-57
2022/05/27 00:57:46;;;;;;;10.70;5.85;;;;;;;21.32;nan;-24409.53;5073804;28;20192;-58
2022/05/27 01:00:16;;;;;;;8.13;4.97;;;;;;;21.15;nan;-24404.97;5073313;28;20217;-56
2022/05/27 01:02:42;;;;;;;7.38;4.75;;;;;;;21.40;nan;-24411.75;5074920;28;20625;-56
2022/05/27 01:05:10;;;;;;;9.57;5.72;;;;;;;21.02;nan;-24401.50;5071045;28;20269;-55
2022/05/27 01:07:35;;;;;;;8.32;5.03;;;;;;;21.09;nan;-24403.44;5070318;28;20170;-56
2022/05/27 01:10:04;;;;;;;8.13;4.82;;;;;;;21.18;nan;-24405.81;5070895;28;20184;-56
2022/05/27 01:12:30;;;;;;;7.45;4.70;;;;;;;21.18;nan;-24405.66;5070928;28;20594;-56
2022/05/27 01:15:17;;;;;;;8.45;5.68;;;;;;;21.13;nan;-24404.56;5070568;28;20182;-56
2022/05/27 01:18:02;;;;;;;10.70;5.15;;;;;;;21.09;nan;-24403.31;5073818;28;20209;-55
2022/05/27 01:20:49;;;;;;;7.57;4.70;;;;;;;21.17;nan;-24405.38;5070724;28;20217;-55
2022/05/27 01:23:14;;;;;;;7.85;5.10;;;;;;;20.92;nan;-24398.72;5073565;28;20174;-56
2022/05/27 01:26:03;;;;;;;8.73;4.85;;;;;;;21.13;nan;-24404.56;5074638;28;20724;-56
2022/05/27 01:28:56;;;;;;;8.43;4.85;;;;;;;20.91;nan;-24398.31;5078900;28;20613;-56
2022/05/27 01:31:31;;;;;;;9.70;5.25;;;;;;;21.10;nan;-24403.72;5058159;28;20174;-55
2022/05/27 01:34:14;;;;;;;8.00;4.82;;;;;;;20.84;nan;-24396.50;5076740;28;20185;-57
2022/05/27 01:36:49;;;;;;;7.10;4.78;;;;;;;21.15;nan;-24404.97;5071839;28;20177;-56
2022/05/27 01:39:54;;;;;;;7.22;4.95;;;;;;;21.04;nan;-24402.06;5077336;28;20201;-56
2022/05/27 01:42:46;;;;;;;8.25;4.78;;;;;;;21.11;nan;-24404.00;5019563;28;20267;-57
2022/05/27 01:45:21;;;;;;;10.95;5.25;;;;;;;20.76;nan;-24394.16;5068605;28;20186;-57
2022/05/27 01:48:10;;;;;;;10.23;4.68;;;;;;;21.05;nan;-24402.34;5075030;28;20213;-56
2022/05/27 01:50:47;;;;;;;14.13;4.93;;;;;;;20.87;nan;-24397.34;5075755;28;20691;-57
2022/05/27 01:53:42;;;;;;;7.25;4.60;;;;;;;20.96;nan;-24399.69;5074553;28;20217;-56
2022/05/27 01:56:20;;;;;;;8.98;5.43;;;;;;;20.75;nan;-24394.00;5074510;28;20746;-56
2022/05/27 01:58:55;;;;;;;8.15;5.03;;;;;;;20.61;nan;-24390.13;5075375;28;20259;-56
2022/05/27 02:01:26;;;;;;;8.60;4.72;;;;;;;20.61;nan;-24390.13;5078209;28;21229;-55
2022/05/27 02:04:13;;;;;;;12.18;5.57;;;;;;;20.26;nan;-24380.69;5079107;28;20582;-56
2022/05/27 02:06:50;;;;;;;7.47;5.07;;;;;;;20.20;nan;-24378.88;5079624;28;20193;-56
2022/05/27 02:09:21;;;;;;;8.13;4.80;;;;;;;20.45;nan;-24385.69;5078875;28;20206;-56
2022/05/27 02:11:52;;;;;;;9.35;5.30;;;;;;;20.28;nan;-24381.09;5078500;28;20204;-56
2022/05/27 02:14:36;;;;;;;9.27;5.32;;;;;;;20.29;nan;-24381.50;5077403;28;20178;-55
2022/05/27 02:17:08;;;;;;;11.55;5.28;;;;;;;20.18;nan;-24378.31;5078955;28;20186;-56
2022/05/27 02:19:36;;;;;;;9.15;5.90;;;;;;;20.12;nan;-24376.66;5077436;28;20575;-56
2022/05/27 02:22:09;;;;;;;9.23;5.57;;;;;;;19.73;nan;-24365.94;5074332;28;20186;-56
2022/05/27 02:24:45;;;;;;;9.85;5.80;;;;;;;19.05;nan;-24347.19;5074856;28;20260;-56
2022/05/27 02:27:26;;;;;;;15.63;6.32;;;;;;;17.31;nan;-24299.22;5073731;28;20563;-55
2022/05/27 02:29:55;;;;;;;8.93;5.88;;;;;;;19.45;nan;-24358.31;5075437;28;20202;-56
2022/05/27 02:32:28;;;;;;;10.23;6.20;;;;;;;19.24;nan;-24352.59;5076759;28;20334;-56
2022/05/27 02:35:09;;;;;;;10.90;6.63;;;;;;;19.53;nan;-24360.38;5077147;28;20788;-55
2022/05/27 02:37:41;;;;;;;11.30;6.30;;;;;;;19.32;nan;-24354.69;5075787;28;20570;-56
2022/05/27 02:40:13;;;;;;;9.63;5.93;;;;;;;19.39;nan;-24356.63;5077346;28;20209;-56
2022/05/27 02:42:57;;;;;;;11.02;5.85;;;;;;;19.69;nan;-24364.84;5079205;28;20181;-56
2022/05/27 02:46:10;;;;;;;9.15;5.47;;;;;;;19.40;nan;-24357.06;5072317;28;20263;-55
2022/05/27 02:48:46;;;;;;;11.13;5.47;;;;;;;19.66;nan;-24364.00;5075969;28;20181;-55
2022/05/27 02:51:23;;;;;;;8.65;5.78;;;;;;;19.03;nan;-24346.63;5075189;28;20638;-55
2022/05/27 02:54:19;;;;;;;8.52;5.47;;;;;;;19.55;nan;-24360.94;5074873;28;20177;-56
2022/05/27 02:56:48;;;;;;;10.88;5.95;;;;;;;19.90;nan;-24370.69;5077843;28;20257;-56
2022/05/27 02:59:17;;;;;;;9.10;5.93;;;;;;;19.98;nan;-24372.75;5080692;28;20206;-56
2022/05/27 03:01:45;;;;;;;10.98;6.40;;;;;;;20.08;nan;-24375.69;5079411;28;20181;-55
2022/05/27 03:04:10;;;;;;;9.80;5.88;;;;;;;20.06;nan;-24375.00;5077707;28;20268;-56
2022/05/27 03:07:10;;;;;;;9.75;5.55;;;;;;;19.92;nan;-24371.22;5075915;28;20209;-57
2022/05/27 03:09:58;;;;;;;10.27;5.35;;;;;;;20.01;nan;-24373.72;5078177;28;20178;-56
2022/05/27 03:13:06;;;;;;;10.43;5.45;;;;;;;20.42;nan;-24385.00;5078565;28;20235;-56
2022/05/27 03:15:44;;;;;;;9.68;5.55;;;;;;;20.41;nan;-24384.56;5050624;28;20767;-55
2022/05/27 03:18:18;;;;;;;12.90;5.40;;;;;;;20.86;nan;-24396.91;5074221;28;20199;-55
2022/05/27 03:21:08;;;;;;;10.80;5.03;;;;;;;21.15;nan;-24404.97;5081113;28;20204;-56
2022/05/27 03:24:09;;;;;;;8.13;5.10;;;;;;;21.49;nan;-24414.25;5077549;28;20264;-56
2022/05/27 03:26:49;;;;;;;9.00;5.25;;;;;;;21.98;nan;-24427.84;5076168;28;20657;-58
2022/05/27 03:29:42;;;;;;;8.32;5.10;;;;;;;22.18;nan;-24433.09;5077250;28;20182;-56
2022/05/27 03:32:32;;;;;;;10.57;5.45;;;;;;;22.55;nan;-24443.34;5076811;28;20181;-56
2022/05/27 03:35:07;;;;;;;7.22;4.75;;;;;;;23.04;nan;-24456.75;5077403;28;20268;-56
2022/05/27 03:37:47;;;;;;;8.68;5.10;;;;;;;23.25;nan;-24462.41;5075120;28;20181;-57
2022/05/27 03:40:31;;;;;;;9.63;5.35;;;;;;;23.95;nan;-24481.47;5073053;28;20653;-56
2022/05/27 03:42:57;;;;;;;12.13;5.32;;;;;;;24.50;nan;-24496.63;5073795;28;20181;-56
2022/05/27 03:45:24;;;;;;;8.32;5.05;;;;;;;24.93;nan;-24508.22;5073826;28;20205;-57
2022/05/27 03:47:50;;;;;;;9.63;4.97;;;;;;;25.64;nan;-24527.47;5072769;28;20220;-55
2022/05/27 03:50:25;;;;;;;7.63;4.82;;;;;;;26.50;nan;-24550.84;5073651;28;20694;-58
2022/05/27 03:52:53;;;;;;;8.45;5.15;;;;;;;27.04;nan;-24565.66;5076503;28;20715;-57
2022/05/27 03:55:23;;;;;;;7.57;4.90;;;;;;;27.17;nan;-24569.09;5073446;28;20237;-57
2022/05/27 03:57:49;;;;;;;8.65;5.20;;;;;;;27.05;nan;-24565.81;5074146;28;20213;-55
2022/05/27 04:00:16;;;;;;;9.30;5.18;;;;;;;27.04;nan;-24565.66;5074778;28;20240;-55
2022/05/27 04:02:42;;;;;;;7.40;4.75;;;;;;;26.65;nan;-24555.09;5076428;28;20594;-56
2022/05/27 04:05:09;;;;;;;10.77;5.13;;;;;;;22.95;nan;-24454.25;5078104;28;20196;-55
2022/05/27 04:07:34;;;;;;;7.68;4.93;;;;;;;27.17;nan;-24569.22;5073799;28;20349;-56
2022/05/27 04:10:00;;;;;;;9.65;4.78;;;;;;;26.98;nan;-24563.88;5073369;28;20202;-57
2022/05/27 04:12:26;;;;;;;10.90;5.38;;;;;;;26.89;nan;-24561.56;5071827;28;20184;-57
2022/05/27 04:14:52;;;;;;;9.10;5.30;;;;;;;27.54;nan;-24579.09;5071337;28;20174;-56
2022/05/27 04:17:30;;;;;;;11.65;5.40;;;;;;;27.91;nan;-24589.25;5071471;28;20260;-56
2022/05/27 04:20:22;;;;;;;9.23;5.07;;;;;;;28.80;nan;-24613.31;5071609;28;20185;-56
2022/05/27 04:22:54;;;;;;;7.40;4.47;;;;;;;28.45;nan;-24603.88;5069149;28;20700;-56
2022/05/27 04:25:20;;;;;;;7.88;5.13;;;;;;;28.58;nan;-24607.16;5071220;28;20684;-56
2022/05/27 04:27:46;;;;;;;8.25;4.75;;;;;;;28.10;nan;-24594.31;5071333;28;20173;-58
2022/05/27 04:30:13;;;;;;;8.93;5.10;;;;;;;27.83;nan;-24587.03;5070928;28;20212;-57
2022/05/27 04:32:39;;;;;;;9.10;4.90;;;;;;;;;;5071505;28;20170;-57
2022/05/27 04:35:05;;;;;;;9.05;4.80;;;;;;;27.96;nan;-24590.59;5071311;28;20239;-57
2022/05/27 04:37:30;;;;;;;8.27;4.78;;;;;;;27.81;nan;-24586.50;5071035;28;20247;-57
2022/05/27 04:39:56;;;;;;;10.52;5.00;;;;;;;28.09;nan;-24594.03;5070899;28;20246;-57
2022/05/27 04:42:21;;;;;;;7.32;4.60;;;;;;;27.87;nan;-24588.00;5069898;28;20265;-56
2022/05/27 04:44:47;;;;;;;8.57;4.72;;;;;;;27.86;nan;-24587.88;5071000;28;20181;-57
2022/05/27 04:47:12;;;;;;;8.63;4.82;;;;;;;28.24;nan;-24598.00;5070911;28;20223;-57
2022/05/27 04:49:54;;;;;;;13.02;5.32;;;;;;;28.55;nan;-24606.47;5070795;28;20778;-57
2022/05/27 04:52:28;;;;;;;8.98;5.30;;;;;;;28.68;nan;-24610.03;5070680;28;20157;-58
2022/05/27 04:54:55;;;;;;;9.73;5.20;;;;;;;28.69;nan;-24610.16;5070563;28;20236;-57
2022/05/27 04:57:27;;;;;;;9.10;5.30;;;;;;;28.43;nan;-24603.34;5072532;28;20248;-57
2022/05/27 04:59:53;;;;;;;9.45;4.95;;;;;;;28.78;nan;-24612.63;5074830;28;20307;-57
2022/05/27 05:02:21;;;;;;;7.88;5.43;;;;;;;28.76;nan;-24612.22;5074755;28;20196;-57
2022/05/27 05:04:47;;;;;;;7.13;5.13;;;;;;;29.02;nan;-24619.06;5074697;28;20170;-57
2022/05/27 05:07:13;;;;;;;9.05;5.22;;;;;;;28.70;nan;-24610.59;5074839;28;20174;-57
2022/05/27 05:09:40;;;;;;;9.45;5.70;;;;;;;28.47;nan;-24604.28;5074859;28;20268;-56
2022/05/27 05:12:07;;;;;;;9.45;5.03;;;;;;;27.68;nan;-24582.94;5074770;28;20178;-57
2022/05/27 05:14:33;;;;;;;13.73;6.00;;;;;;;27.54;nan;-24579.09;5074470;28;20185;-57
2022/05/27 05:16:58;;;;;;;6.82;4.82;;;;;;;27.23;nan;-24570.88;5078645;28;20173;-57
2022/05/27 05:19:24;;;;;;;13.45;5.28;;;;;;;26.83;nan;-24560.03;5075528;28;20231;-58
2022/05/27 05:21:50;;;;;;;8.93;4.80;;;;;;;26.93;nan;-24562.66;5074556;28;20649;-58
2022/05/27 05:24:15;;;;;;;7.88;5.07;;;;;;;26.79;nan;-24558.78;5076716;28;20242;-57
2022/05/27 05:26:40;;;;;;;6.57;4.68;;;;;;;27.47;nan;-24577.31;5074465;28;20209;-57
2022/05/27 05:29:06;;;;;;;7.85;4.60;;;;;;;27.22;nan;-24570.59;5072423;28;20197;-57
2022/05/27 05:31:33;;;;;;;8.55;5.30;;;;;;;27.29;nan;-24572.25;5074260;28;20187;-58
2022/05/27 05:33:59;;;;;;;11.50;4.30;;;;;;;26.99;nan;-24564.16;5074718;28;20170;-56
2022/05/27 05:36:34;;;;;;;7.68;4.47;;;;;;;27.27;nan;-24571.69;5081801;28;20231;-56
2022/05/27 05:38:59;;;;;;;7.80;4.82;;;;;;;27.14;nan;-24568.28;5074269;28;20571;-56
2022/05/27 05:41:30;;;;;;;10.23;5.10;;;;;;;26.96;nan;-24563.47;5074023;28;20166;-56
2022/05/27 05:43:56;;;;;;;7.30;5.00;;;;;;;26.73;nan;-24557.16;5075941;28;20197;-55
2022/05/27 05:46:24;;;;;;;11.82;4.55;;;;;;;26.55;nan;-24552.34;5074057;28;20178;-56
2022/05/27 05:48:49;;;;;;;7.88;5.25;;;;;;;26.00;nan;-24537.38;5074182;28;20174;-56
2022/05/27 05:51:15;;;;;;;8.00;5.00;;;;;;;26.29;nan;-24545.22;5074033;28;20162;-56
2022/05/27 05:53:40;;;;;;;10.57;5.40;;;;;;;26.31;nan;-24545.91;5073630;28;20209;-57
2022/05/27 05:56:06;;;;;;;8.30;4.95;;;;;;;26.21;nan;-24543.00;5079019;28;20275;-56
2022/05/27 05:58:31;;;;;;;8.63;5.28;;;;;;;26.73;nan;-24557.28;5073863;28;20205;-56
2022/05/27 06:00:56;;;;;;;7.85;5.25;;;;;;;26.71;nan;-24556.59;5073129;28;20280;-57
2022/05/27 06:03:22;;;;;;;12.10;5.55;;;;;;;26.33;nan;-24546.44;5073771;28;20269;-56
2022/05/27 06:05:47;;;;;;;10.05;5.70;;;;;;;26.44;nan;-24549.34;5073412;28;20182;-56
2022/05/27 06:08:15;;;;;;;10.05;5.30;;;;;;;26.77;nan;-24558.38;5072607;28;20563;-56
2022/05/27 06:10:41;;;;;;;9.57;4.90;;;;;;;26.64;nan;-24554.81;5073328;28;20618;-56
2022/05/27 06:13:06;;;;;;;8.15;4.90;;;;;;;26.23;nan;-24543.69;5072965;28;20169;-56
2022/05/27 06:15:32;;;;;;;7.15;4.25;;;;;;;26.32;nan;-24546.16;5072687;28;20554;-56
2022/05/27 06:17:59;;;;;;;8.80;5.15;;;;;;;26.14;nan;-24541.22;5072836;28;20174;-56
2022/05/27 06:20:25;;;;;;;7.80;4.88;;;;;;;26.83;nan;-24560.03;5073394;28;20711;-56
2022/05/27 06:22:51;;;;;;;7.10;4.78;;;;;;;26.64;nan;-24554.81;5073439;28;20198;-56
2022/05/27 06:25:17;;;;;;;9.85;4.40;;;;;;;26.35;nan;-24547.00;5075050;28;20213;-56
2022/05/27 06:27:42;;;;;;;8.68;4.32;;;;;;;26.44;nan;-24549.19;5073084;28;20235;-56
2022/05/27 06:35:37;;;;;;;7.82;4.85;;;;;;;26.42;nan;-24548.78;5053149;28;20246;-56
2022/05/27 06:38:03;;;;;;;10.15;4.80;;;;;;;27.03;nan;-24565.38;5053144;28;20175;-56
2022/05/27 06:40:29;;;;;;;6.78;4.60;;;;;;;26.87;nan;-24560.88;5053264;28;20984;-56
2022/05/27 06:42:54;;;;;;;8.15;4.65;;;;;;;27.11;nan;-24567.59;5053127;28;20171;-56
2022/05/27 06:45:20;;;;;;;7.57;4.80;;;;;;;27.45;nan;-24576.63;5051891;28;20181;-57
2022/05/27 06:47:45;;;;;;;5.80;4.05;;;;;;;26.95;nan;-24563.06;5052956;28;20155;-57
2022/05/27 06:50:11;;;;;;;5.30;3.97;;;;;;;26.79;nan;-24558.78;5052975;28;20178;-56
2022/05/27 06:52:37;;;;;;;6.75;4.28;;;;;;;26.98;nan;-24564.00;5052844;28;20182;-56
2022/05/27 06:55:03;;;;;;;9.23;4.53;;;;;;;27.11;nan;-24567.59;5072067;28;20240;-56
2022/05/27 06:57:29;;;;;;;7.55;4.30;;;;;;;26.82;nan;-24559.63;5072450;28;20638;-56
2022/05/27 06:59:54;;;;;;;14.95;5.10;;;;;;;26.85;nan;-24560.44;5078104;28;20196;-56
2022/05/27 07:02:22;;;;;;;8.93;4.88;;;;;;;27.23;nan;-24570.75;5072287;28;20209;-56
2022/05/27 07:04:48;;;;;;;6.65;4.50;;;;;;;27.43;nan;-24576.22;5072209;28;20154;-57
2022/05/27 07:07:14;;;;;;;9.32;4.75;;;;;;;27.77;nan;-24585.25;5072397;28;20653;-57
2022/05/27 07:09:39;;;;;;;5.28;3.85;;;;;;;27.93;nan;-24589.66;5072535;28;20177;-57
2022/05/27 07:12:08;;;;;;;7.30;3.92;;;;;;;27.79;nan;-24585.81;5072788;28;20170;-57
2022/05/27 07:14:33;;;;;;;8.20;4.90;;;;;;;27.93;nan;-24589.78;5072463;28;20178;-57
2022/05/27 07:16:59;;;;;;;6.40;4.28;;;;;;;27.99;nan;-24591.28;5072616;28;20218;-57
2022/05/27 07:19:25;;;;;;;4.53;3.10;;;;;;;28.18;nan;-24596.50;5071669;28;20201;-57
2022/05/27 07:21:52;;;;;;;8.95;3.83;;;;;;;28.09;nan;-24594.16;5072069;28;20540;-57
2022/05/27 07:24:18;;;;;;;8.63;4.55;;;;;;;27.99;nan;-24591.44;5072381;28;20204;-57
2022/05/27 07:26:45;;;;;;;7.45;4.10;;;;;;;28.19;nan;-24596.78;5072257;28;20215;-57
2022/05/27 07:29:11;;;;;;;5.18;4.00;;;;;;;28.20;nan;-24597.03;5072099;28;20197;-58
2022/05/27 07:31:39;;;;;;;7.05;4.18;;;;;;;27.92;nan;-24589.50;5071882;28;20571;-58
2022/05/27 07:34:05;;;;;;;7.85;3.53;;;;;;;28.23;nan;-24597.72;5071667;28;20641;-57
2022/05/27 07:36:31;;;;;;;4.97;3.42;;;;;;;28.31;nan;-24599.91;5077439;28;20213;-57
2022/05/27 07:38:56;;;;;;;4.65;3.58;;;;;;;28.48;nan;-24604.56;5071750;28;20236;-57
2022/05/27 07:41:23;;;;;;;5.88;3.40;;;;;;;28.83;nan;-24614.00;5071793;28;20660;-57
2022/05/27 07:43:49;;;;;;;5.28;3.10;;;;;;;28.89;nan;-24615.78;5073906;28;20190;-57
2022/05/27 07:46:16;;;;;;;5.70;3.72;;;;;;;28.87;nan;-24615.09;5073903;28;20188;-57
2022/05/27 07:48:43;;;;;;;4.57;3.35;;;;;;;29.05;nan;-24619.88;5076664;28;20226;-58
2022/05/27 07:51:08;;;;;;;4.82;2.90;;;;;;;28.93;nan;-24616.88;5076169;28;20178;-58
2022/05/27 07:53:35;;;;;;;3.88;3.10;;;;;;;29.08;nan;-24620.69;5071611;28;20208;-56
2022/05/27 07:56:10;;;;;;;6.35;3.58;;;;;;;29.45;nan;-24630.81;5071653;28;20327;-57
2022/05/27 07:58:36;;;;;;;6.13;3.50;;;;;;;29.55;nan;-24633.41;5071385;28;20647;-57
2022/05/27 08:01:03;;;;;;;3.55;2.85;;;;;;;29.68;nan;-24637.09;5071303;28;20224;-57
2022/05/27 08:03:28;;;;;;;4.35;3.28;;;;;;;29.52;nan;-24632.72;5071397;28;20747;-57
2022/05/27 08:05:55;;;;;;;5.88;3.22;;;;;;;29.31;nan;-24627.13;5077230;28;20260;-57
2022/05/27 08:08:24;;;;;;;3.72;2.72;;;;;;;29.70;nan;-24637.50;5071810;28;20173;-57
2022/05/27 08:10:50;;;;;;;4.10;2.67;;;;;;;29.32;nan;-24627.25;5073620;28;20265;-56
2022/05/27 08:13:15;;;;;;;4.20;3.10;;;;;;;29.69;nan;-24637.22;5070851;28;20181;-56
2022/05/27 08:15:42;;;;;;;7.88;3.65;;;;;;;30.28;nan;-24653.19;5076912;28;20178;-57
2022/05/27 08:18:09;;;;;;;5.18;2.85;;;;;;;30.38;nan;-24655.91;5076066;28;20187;-56
2022/05/27 08:20:36;;;;;;;4.20;2.80;;;;;;;30.49;nan;-24658.91;5069943;28;20714;-57
2022/05/27 08:23:03;;;;;;;4.78;3.10;;;;;;;30.56;nan;-24660.81;5073782;28;20203;-57
2022/05/27 08:25:29;;;;;;;3.20;2.58;;;;;;;30.41;nan;-24656.59;5073814;28;20644;-57
2022/05/27 08:27:55;;;;;;;4.20;2.70;;;;;;;31.06;nan;-24674.28;5053973;28;20209;-57
2022/05/27 08:30:24;;;;;;;6.90;3.42;;;;;;;30.94;nan;-24671.03;5071194;28;20231;-56
2022/05/27 08:32:50;;;;;;;4.13;2.70;;;;;;;30.66;nan;-24663.41;5076561;28;20176;-56
2022/05/27 08:38:07;;;;;;;3.45;2.47;;;;;;;30.85;nan;-24668.44;5073724;28;20189;-56
2022/05/27 08:41:10;;;;;;;3.25;2.40;;;;;;;31.19;nan;-24677.69;5074559;28;20207;-56
2022/05/27 08:43:58;;;;;;;4.28;2.85;;;;;;;31.21;nan;-24678.25;5071431;28;20173;-56
2022/05/27 08:46:44;;;;;;;2.97;2.30;;;;;;;31.83;nan;-24694.97;5071746;28;20571;-56
2022/05/27 08:49:18;;;;;;;5.47;3.58;;;;;;;31.75;nan;-24692.78;5071636;28;20641;-56
2022/05/27 08:51:49;;;;;;;4.30;2.60;;;;;;;31.94;nan;-24697.94;5071671;28;20240;-56
2022/05/27 08:54:23;;;;;;;8.60;2.50;;;;;;;31.61;nan;-24688.84;5071738;28;20177;-57
2022/05/27 09:00:20;;;;;;;3.05;2.25;;;;;;;31.25;nan;-24679.31;5070667;28;20209;-56
2022/05/27 09:02:57;;;;;;;5.50;2.42;;;;;;;31.24;nan;-24678.91;5060815;28;20193;-57
2022/05/27 09:05:33;;;;;;;6.25;2.22;;;;;;;30.82;nan;-24667.75;5074018;28;20684;-56
2022/05/27 09:08:05;;;;;;;3.08;2.28;;;;;;;30.82;nan;-24667.63;5071182;28;20177;-56
2022/05/27 09:10:58;;;;;;;3.90;2.00;;;;;;;30.90;nan;-24669.78;5071754;28;20169;-56
2022/05/27 09:13:52;;;;;;;5.13;3.00;;;;;;;31.24;nan;-24679.06;5072304;28;20185;-56
2022/05/27 09:16:29;;;;;;;5.15;2.55;;;;;;;31.34;nan;-24681.78;5071341;28;20188;-56
2022/05/27 09:19:16;;;;;;;2.65;2.13;;;;;;;31.22;nan;-24678.38;5074005;28;20219;-56
2022/05/27 09:21:59;;;;;;;3.10;2.08;;;;;;;31.58;nan;-24688.16;5076645;28;20193;-57
2022/05/27 09:25:10;;;;;;;3.13;2.22;;;;;;;31.11;nan;-24675.53;5074842;28;20182;-56
2022/05/27 09:28:06;;;;;;;3.33;2.22;;;;;;;31.19;nan;-24677.56;5053022;28;20277;-57
2022/05/27 09:30:33;;;;;;;5.95;2.28;;;;;;;31.32;nan;-24681.22;5075468;28;20649;-56
2022/05/27 09:33:03;;;;;;;5.07;2.33;;;;;;;31.05;nan;-24673.88;5071833;28;20172;-56
2022/05/27 09:35:41;;;;;;;4.28;2.42;;;;;;;31.24;nan;-24678.91;5080065;28;20591;-56
2022/05/27 09:38:07;;;;;;;2.80;2.20;;;;;;;31.04;nan;-24673.75;5070614;28;20173;-56
2022/05/27 09:40:48;;;;;;;5.55;2.70;;;;;;;31.31;nan;-24680.97;5077435;28;20209;-57
2022/05/27 09:43:39;;;;;;;3.05;2.33;;;;;;;31.46;nan;-24684.91;5073183;28;20186;-57
2022/05/27 09:46:09;;;;;;;10.27;2.60;;;;;;;31.45;nan;-24684.63;5113086;27;20189;-56
2022/05/27 09:48:35;;;;;;;3.70;2.53;;;;;;;31.62;nan;-24689.13;5074643;28;20195;-56
2022/05/27 09:51:04;;;;;;;3.97;1.98;;;;;;;31.53;nan;-24686.94;5081221;28;20248;-55
2022/05/27 09:53:48;;;;;;;3.75;2.30;;;;;;;30.86;nan;-24668.84;5081954;28;20180;-57
2022/05/27 09:56:15;;;;;;;2.53;2.10;;;;;;;30.82;nan;-24667.63;5078146;28;20710;-57
2022/05/27 09:58:45;;;;;;;3.17;2.45;;;;;;;30.60;nan;-24661.91;5082002;28;20189;-56
2022/05/27 10:01:25;;;;;;;2.60;2.00;;;;;;;30.45;nan;-24657.81;5074960;28;20253;-56
2022/05/27 10:04:15;;;;;;;4.35;2.33;;;;;;;30.40;nan;-24656.44;5073466;28;20570;-56
2022/05/27 10:06:41;;;;;;;3.08;2.15;;;;;;;30.31;nan;-24654.00;5069115;28;20284;-57
2022/05/27 10:09:11;;;;;;;2.97;2.30;;;;;;;30.44;nan;-24657.53;5079123;28;20178;-58
2022/05/27 10:11:55;;;;;;;2.88;2.20;;;;;;;31.00;nan;-24672.66;5070100;28;20188;-57
2022/05/27 10:14:31;;;;;;;3.35;2.40;;;;;;;31.44;nan;-24684.50;5078571;28;20631;-56
2022/05/27 10:17:09;;;;;;;2.95;2.08;;;;;;;31.31;nan;-24680.81;5077725;28;20314;-57
2022/05/27 10:19:40;;;;;;;3.28;2.22;;;;;;;31.71;nan;-24691.56;5070563;28;20284;-56
2022/05/27 10:22:09;;;;;;;3.17;2.30;;;;;;;31.78;nan;-24693.47;5076059;28;20181;-57
2022/05/27 10:24:40;;;;;;;2.78;2.25;;;;;;;32.12;nan;-24702.56;5074149;28;20329;-56
2022/05/27 10:27:17;;;;;;;5.28;2.42;;;;;;;31.41;nan;-24683.69;5080681;28;20207;-57
2022/05/27 10:30:06;;;;;;;4.03;2.40;;;;;;;32.01;nan;-24699.72;5074191;28;20267;-57
2022/05/27 10:32:43;;;;;;;3.22;2.50;;;;;;;31.61;nan;-24688.84;5075194;28;20187;-57
2022/05/27 10:35:21;;;;;;;4.13;2.20;;;;;;;31.35;nan;-24681.91;5076250;28;20185;-57
2022/05/27 10:38:10;;;;;;;5.25;2.90;;;;;;;31.61;nan;-24688.84;5073182;28;20181;-55
2022/05/27 10:40:54;;;;;;;3.13;2.30;;;;;;;31.65;nan;-24689.94;5077573;28;20257;-57
2022/05/27 10:43:41;;;;;;;3.97;2.50;;;;;;;31.52;nan;-24686.53;5071197;28;20181;-56
2022/05/27 10:46:09;;;;;;;5.63;2.63;;;;;;;31.45;nan;-24684.75;5073395;28;20246;-57
2022/05/27 10:49:04;;;;;;;2.97;2.13;;;;;;;31.82;nan;-24694.69;5075624;28;20534;-57
2022/05/27 10:51:48;;;;;;;4.75;2.30;;;;;;;32.14;nan;-24703.25;5078444;28;20177;-56
2022/05/27 10:54:25;;;;;;;2.67;2.30;;;;;;;32.36;nan;-24709.22;5077347;28;20172;-56
2022/05/27 11:03:28;;;;;;;5.05;2.20;;;;;;;32.52;nan;-24713.44;5070859;28;20230;-57
2022/05/27 11:06:12;;;;;;;2.78;2.30;;;;;;;32.75;nan;-24719.66;5077053;28;20641;-57
2022/05/27 11:09:01;;;;;;;2.88;2.58;;;;;;;32.98;nan;-24725.78;5080249;28;20189;-56
2022/05/27 11:11:50;;;;;;;3.30;2.30;;;;;;;33.07;nan;-24728.22;5076849;28;20176;-56
2022/05/27 11:17:55;;;;;;;3.58;2.22;;;;;;;32.90;nan;-24723.47;5058205;28;20200;-57
2022/05/27 11:20:53;;;;;;;2.40;2.13;;;;;;;32.99;nan;-24726.03;5074893;28;20208;-57
2022/05/27 11:23:52;;;;;;;3.38;2.35;;;;;;;33.32;nan;-24734.72;5074182;28;20216;-57
2022/05/27 11:26:48;;;;;;;4.72;2.28;;;;;;;33.05;nan;-24727.66;5065250;28;20213;-55
2022/05/27 11:29:26;;;;;;;2.97;2.17;;;;;;;33.12;nan;-24729.56;5074279;28;20181;-56
2022/05/27 11:32:04;;;;;;;4.13;2.50;;;;;;;32.66;nan;-24717.22;5072690;28;20333;-57
2022/05/27 11:34:39;;;;;;;3.88;2.20;;;;;;;33.37;nan;-24736.19;5070751;28;20663;-57
2022/05/27 11:37:08;;;;;;;3.42;2.45;;;;;;;33.38;nan;-24736.34;5075243;28;20242;-58
2022/05/27 11:40:15;;;;;;;4.38;2.35;;;;;;;33.51;nan;-24739.84;5074109;28;20212;-57
2022/05/27 11:42:59;;;;;;;4.57;2.75;;;;;;;33.66;nan;-24743.91;5076801;28;20644;-57
2022/05/27 11:45:30;;;;;;;3.72;2.60;;;;;;;33.12;nan;-24729.44;5076270;28;20224;-57
2022/05/27 11:48:06;;;;;;;3.65;2.30;;;;;;;33.69;nan;-24744.75;5074694;28;20211;-56
2022/05/27 11:50:59;;;;;;;3.15;2.53;;;;;;;33.90;nan;-24750.28;5078112;28;20237;-58
2022/05/27 11:53:49;;;;;;;4.40;2.65;;;;;;;33.71;nan;-24745.28;5075580;28;20201;-56
2022/05/27 11:56:33;;;;;;;4.93;3.10;;;;;;;33.93;nan;-24751.22;5079717;28;20263;-55
2022/05/27 11:59:12;;;;;;;3.17;2.67;;;;;;;33.60;nan;-24742.44;5073120;28;20191;-56
2022/05/27 12:02:21;;;;;;;3.67;2.65;;;;;;;33.39;nan;-24736.63;5078202;28;20187;-56
2022/05/27 12:04:55;;;;;;;5.47;2.90;;;;;;;33.38;nan;-24736.34;5077970;28;20197;-56
2022/05/27 12:07:44;;;;;;;3.13;2.20;;;;;;;33.18;nan;-24731.19;5074667;28;20215;-56
2022/05/27 12:10:30;;;;;;;4.45;2.30;;;;;;;33.04;nan;-24727.25;5076465;28;20219;-56
2022/05/27 12:13:05;;;;;;;5.78;2.50;;;;;;;33.40;nan;-24737.00;5073507;28;20189;-58
2022/05/27 12:15:44;;;;;;;6.32;2.78;;;;;;;33.21;nan;-24731.88;5077285;28;20172;-57
2022/05/27 12:18:26;;;;;;;3.92;2.70;;;;;;;33.40;nan;-24737.00;5074064;28;20180;-57
2022/05/27 12:20:52;;;;;;;4.53;2.42;;;;;;;33.51;nan;-24740.00;5073715;28;20177;-57
2022/05/27 12:23:22;;;;;;;3.70;2.70;;;;;;;33.25;nan;-24733.09;5071904;28;20181;-58
2022/05/27 12:25:52;;;;;;;4.28;2.42;;;;;;;33.15;nan;-24730.25;5074551;28;20185;-57
2022/05/27 12:28:27;;;;;;;4.82;2.58;;;;;;;33.19;nan;-24731.47;5071156;28;20192;-55
2022/05/27 12:30:54;;;;;;;3.53;2.38;;;;;;;33.25;nan;-24733.09;5073929;28;20209;-55
2022/05/27 12:33:23;;;;;;;3.70;2.50;;;;;;;33.36;nan;-24735.78;5072062;28;20181;-57